Time,TemperatureF,DewpointF,PressureIn,WindDirection,WindDirectionDegrees,WindSpeedMPH,WindSpeedGustMPH,Humidity,HourlyPrecipIn,Conditions,Clouds,dailyrainin,SolarRadiationWatts/m^2,SoftwareType,DateUTC
2013-05-07 00:02:00,57.7,55.1,29.88,East,79,2.0,2.0,91,0.00,,,0.00,0,Wunderground v.1.15,2013-05-07 04:02:00,
2013-05-07 00:03:00,57.7,55.4,29.89,East,79,1.0,2.0,92,0.00,,,0.00,0,Wunderground v.1.15,2013-05-07 04:03:00,
2013-05-07 00:05:00,57.6,55.3,29.89,East,79,2.0,2.0,92,0.00,,,0.00,0,Wunderground v.1.15,2013-05-07 04:05:00,
2013-05-07 00:07:00,57.6,55.0,29.89,East,79,1.0,2.0,91,0.00,,,0.00,0,Wunderground v.1.15,2013-05-07 04:07:00,
2013-05-07 00:12:00,57.4,55.1,29.88,East,80,2.0,2.0,92,0.00,,,0.00,0,Wunderground v.1.15,2013-05-07 04:12:00,
2013-05-07 00:18:00,57.2,55.2,29.88,NE,50,2.0,2.0,93,0.00,,,0.00,0,Wunderground v.1.15,2013-05-07 04:18:00,
2013-05-07 00:23:00,57.0,54.7,29.88,ENE,71,1.0,4.0,92,0.00,,,0.00,0,Wunderground v.1.15,2013-05-07 04:23:00,
2013-05-07 00:28:00,57.1,54.8,29.88,ENE,73,2.0,4.0,92,0.00,,,0.00,0,Wunderground v.1.15,2013-05-07 04:28:00,
2013-05-07 00:33:00,57.0,54.7,29.88,ENE,78,1.0,1.0,92,0.00,,,0.00,0,Wunderground v.1.15,2013-05-07 04:33:00,
2013-05-07 00:39:00,56.9,54.6,29.89,East,79,2.0,4.0,92,0.00,,,0.00,0,Wunderground v.1.15,2013-05-07 04:39:00,
2013-05-07 00:45:00,56.7,54.4,29.89,East,86,2.0,3.0,92,0.00,,,0.00,0,Wunderground v.1.15,2013-05-07 04:45:00,
2013-05-07 00:51:00,56.7,54.4,29.89,East,88,2.0,2.0,92,0.00,,,0.00,0,Wunderground v.1.15,2013-05-07 04:51:00,
2013-05-07 00:57:00,56.3,54.3,29.89,East,88,0.0,3.0,93,0.00,,,0.00,0,Wunderground v.1.15,2013-05-07 04:57:00,
2013-05-07 01:03:00,56.1,54.1,29.89,East,88,0.0,1.0,93,0.00,,,0.00,0,Wunderground v.1.15,2013-05-07 05:03:00,
2013-05-07 01:09:00,56.1,54.4,29.89,East,88,0.0,0.0,94,0.00,,,0.00,0,Wunderground v.1.15,2013-05-07 05:09:00,
2013-05-07 01:14:00,55.8,54.1,29.89,East,88,2.0,2.0,94,0.00,,,0.00,0,Wunderground v.1.15,2013-05-07 05:14:00,
2013-05-07 01:20:00,55.8,54.4,29.89,East,88,0.0,0.0,95,0.00,,,0.00,0,Wunderground v.1.15,2013-05-07 05:20:00,
2013-05-07 01:25:00,55.8,54.1,29.89,East,88,0.0,2.0,94,0.00,,,0.00,0,Wunderground v.1.15,2013-05-07 05:25:00,
2013-05-07 01:31:00,55.6,54.2,29.89,East,88,0.0,0.0,95,0.00,,,0.00,0,Wunderground v.1.15,2013-05-07 05:31:00,
2013-05-07 01:36:00,55.4,54.0,29.89,East,88,1.0,1.0,95,0.00,,,0.00,0,Wunderground v.1.15,2013-05-07 05:36:00,
2013-05-07 01:42:00,55.1,53.4,29.89,East,88,0.0,0.0,94,0.00,,,0.00,0,Wunderground v.1.15,2013-05-07 05:42:00,
2013-05-07 01:48:00,54.9,53.5,29.89,East,88,0.0,0.0,95,0.00,,,0.00,0,Wunderground v.1.15,2013-05-07 05:48:00,
2013-05-07 01:53:00,54.6,52.9,29.89,East,88,0.0,0.0,94,0.00,,,0.00,0,Wunderground v.1.15,2013-05-07 05:53:00,
2013-05-07 01:58:00,54.4,53.3,29.88,East,87,0.0,0.0,96,0.00,,,0.00,0,Wunderground v.1.15,2013-05-07 05:58:00,
2013-05-07 02:03:00,54.2,52.8,29.88,East,87,0.0,0.0,95,0.00,,,0.00,0,Wunderground v.1.15,2013-05-07 06:03:00,
2013-05-07 02:08:00,54.0,52.6,29.88,East,87,0.0,0.0,95,0.00,,,0.00,0,Wunderground v.1.15,2013-05-07 06:08:00,
2013-05-07 02:13:00,53.7,52.6,29.88,East,87,0.0,0.0,96,0.00,,,0.00,0,Wunderground v.1.15,2013-05-07 06:13:00,
2013-05-07 02:18:00,53.4,52.3,29.88,East,87,0.0,0.0,96,0.00,,,0.00,0,Wunderground v.1.15,2013-05-07 06:18:00,
2013-05-07 02:23:00,53.2,52.1,29.88,East,86,0.0,0.0,96,0.00,,,0.00,0,Wunderground v.1.15,2013-05-07 06:23:00,
2013-05-07 02:28:00,53.0,51.9,29.88,East,86,0.0,0.0,96,0.00,,,0.00,0,Wunderground v.1.15,2013-05-07 06:28:00,
2013-05-07 02:33:00,52.8,51.7,29.88,ENE,65,0.0,0.0,96,0.00,,,0.00,0,Wunderground v.1.15,2013-05-07 06:33:00,
2013-05-07 02:38:00,52.6,51.8,29.88,ENE,60,0.0,0.0,97,0.00,,,0.00,0,Wunderground v.1.15,2013-05-07 06:38:00,
2013-05-07 02:43:00,52.4,51.6,29.88,ENE,58,0.0,0.0,97,0.00,,,0.00,0,Wunderground v.1.15,2013-05-07 06:43:00,
2013-05-07 02:49:00,52.3,51.5,29.88,ENE,57,0.0,0.0,97,0.00,,,0.00,0,Wunderground v.1.15,2013-05-07 06:49:00,
2013-05-07 02:54:00,52.2,51.4,29.89,ENE,57,0.0,0.0,97,0.00,,,0.00,0,Wunderground v.1.15,2013-05-07 06:54:00,
2013-05-07 02:59:00,52.1,51.3,29.89,NE,56,0.0,0.0,97,0.00,,,0.00,0,Wunderground v.1.15,2013-05-07 06:59:00,
2013-05-07 03:04:00,52.1,51.6,29.88,ENE,69,0.0,0.0,98,0.00,,,0.00,0,Wunderground v.1.15,2013-05-07 07:04:00,
2013-05-07 03:09:00,51.9,51.4,29.88,ENE,72,0.0,0.0,98,0.00,,,0.00,0,Wunderground v.1.15,2013-05-07 07:09:00,
2013-05-07 03:14:00,51.8,51.3,29.88,ENE,73,0.0,0.0,98,0.00,,,0.00,0,Wunderground v.1.15,2013-05-07 07:14:00,
2013-05-07 03:19:00,51.8,51.3,29.88,ENE,69,0.0,0.0,98,0.00,,,0.00,0,Wunderground v.1.15,2013-05-07 07:19:00,
2013-05-07 03:24:00,51.6,51.1,29.88,ENE,68,0.0,0.0,98,0.00,,,0.00,0,Wunderground v.1.15,2013-05-07 07:24:00,
2013-05-07 03:29:00,51.6,51.1,29.88,ENE,69,0.0,0.0,98,0.00,,,0.00,0,Wunderground v.1.15,2013-05-07 07:29:00,
2013-05-07 03:34:00,51.5,51.0,29.88,ENE,67,0.0,0.0,98,0.00,,,0.00,0,Wunderground v.1.15,2013-05-07 07:34:00,
2013-05-07 03:39:00,51.5,51.0,29.88,ENE,59,0.0,0.0,98,0.00,,,0.00,0,Wunderground v.1.15,2013-05-07 07:39:00,
2013-05-07 03:44:00,51.4,50.9,29.88,ENE,58,0.0,0.0,98,0.00,,,0.00,0,Wunderground v.1.15,2013-05-07 07:44:00,
2013-05-07 03:49:00,51.4,50.9,29.89,NE,56,0.0,0.0,98,0.00,,,0.00,0,Wunderground v.1.15,2013-05-07 07:49:00,
2013-05-07 03:54:00,51.4,50.9,29.88,ENE,57,0.0,0.0,98,0.00,,,0.00,0,Wunderground v.1.15,2013-05-07 07:54:00,
2013-05-07 03:59:00,51.4,51.1,29.88,NE,56,0.0,0.0,99,0.00,,,0.00,0,Wunderground v.1.15,2013-05-07 07:59:00,
2013-05-07 04:04:00,51.4,51.1,29.89,NE,56,0.0,0.0,99,0.00,,,0.00,0,Wunderground v.1.15,2013-05-07 08:04:00,
2013-05-07 04:09:00,51.4,51.1,29.88,NE,56,0.0,0.0,99,0.00,,,0.00,0,Wunderground v.1.15,2013-05-07 08:09:00,
2013-05-07 04:14:00,51.6,51.3,29.89,ENE,57,0.0,0.0,99,0.00,,,0.00,0,Wunderground v.1.15,2013-05-07 08:14:00,
2013-05-07 04:19:00,51.8,51.5,29.89,ENE,57,0.0,0.0,99,0.00,,,0.00,0,Wunderground v.1.15,2013-05-07 08:19:00,
2013-05-07 04:24:00,52.0,51.7,29.89,ENE,58,0.0,0.0,99,0.00,,,0.00,0,Wunderground v.1.15,2013-05-07 08:24:00,
2013-05-07 04:29:00,52.1,52.1,29.89,ENE,58,0.0,0.0,100,0.00,,,0.00,0,Wunderground v.1.15,2013-05-07 08:29:00,
2013-05-07 04:34:00,52.2,52.2,29.89,ENE,58,0.0,0.0,100,0.00,,,0.00,0,Wunderground v.1.15,2013-05-07 08:34:00,
2013-05-07 04:39:00,52.4,52.4,29.89,ENE,59,0.0,0.0,100,0.00,,,0.00,0,Wunderground v.1.15,2013-05-07 08:39:00,
2013-05-07 04:44:00,52.5,52.2,29.89,ENE,59,0.0,0.0,99,0.00,,,0.00,0,Wunderground v.1.15,2013-05-07 08:44:00,
2013-05-07 04:49:00,52.6,52.3,29.88,ENE,59,0.0,0.0,99,0.00,,,0.00,0,Wunderground v.1.15,2013-05-07 08:49:00,
2013-05-07 04:54:00,52.7,52.4,29.88,ENE,59,0.0,0.0,99,0.00,,,0.00,0,Wunderground v.1.15,2013-05-07 08:54:00,
2013-05-07 04:59:00,52.6,52.6,29.88,ENE,59,0.0,0.0,100,0.00,,,0.00,0,Wunderground v.1.15,2013-05-07 08:59:00,
2013-05-07 05:04:00,52.4,52.1,29.88,ENE,58,0.0,0.0,99,0.00,,,0.00,0,Wunderground v.1.15,2013-05-07 09:04:00,
2013-05-07 05:09:00,52.3,52.0,29.88,ENE,59,0.0,0.0,99,0.00,,,0.00,0,Wunderground v.1.15,2013-05-07 09:09:00,
2013-05-07 05:14:00,52.3,52.0,29.88,ENE,59,0.0,0.0,99,0.00,,,0.00,0,Wunderground v.1.15,2013-05-07 09:14:00,
2013-05-07 05:19:00,52.2,51.9,29.88,ENE,58,0.0,0.0,99,0.00,,,0.00,0,Wunderground v.1.15,2013-05-07 09:19:00,
2013-05-07 05:24:00,52.2,51.9,29.88,ENE,59,0.0,0.0,99,0.00,,,0.00,0,Wunderground v.1.15,2013-05-07 09:24:00,
2013-05-07 05:29:00,52.1,51.8,29.88,ENE,59,0.0,0.0,99,0.00,,,0.00,0,Wunderground v.1.15,2013-05-07 09:29:00,
2013-05-07 05:34:00,52.0,51.7,29.88,ENE,58,0.0,0.0,99,0.00,,,0.00,0,Wunderground v.1.15,2013-05-07 09:34:00,
2013-05-07 05:39:00,51.9,51.6,29.88,ENE,58,0.0,0.0,99,0.00,,,0.00,0,Wunderground v.1.15,2013-05-07 09:39:00,
2013-05-07 05:44:00,51.8,51.5,29.88,ENE,59,0.0,0.0,99,0.00,,,0.00,0,Wunderground v.1.15,2013-05-07 09:44:00,
2013-05-07 05:49:00,51.7,51.4,29.89,ENE,59,0.0,0.0,99,0.00,,,0.00,0,Wunderground v.1.15,2013-05-07 09:49:00,
2013-05-07 05:54:00,51.8,51.5,29.89,ENE,59,0.0,0.0,99,0.00,,,0.00,0,Wunderground v.1.15,2013-05-07 09:54:00,
2013-05-07 05:59:00,51.9,51.9,29.89,ENE,59,0.0,0.0,100,0.00,,,0.00,0,Wunderground v.1.15,2013-05-07 09:59:00,
2013-05-07 06:04:00,52.0,51.7,29.89,ENE,59,0.0,1.0,99,0.00,,,0.00,0,Wunderground v.1.15,2013-05-07 10:04:00,
2013-05-07 06:09:00,52.2,52.2,29.88,ENE,60,0.0,1.0,100,0.00,,,0.00,0,Wunderground v.1.15,2013-05-07 10:09:00,
2013-05-07 06:15:00,52.3,52.0,29.88,ENE,59,0.0,0.0,99,0.00,,,0.00,0,Wunderground v.1.15,2013-05-07 10:15:00,
2013-05-07 06:20:00,52.4,52.4,29.89,ENE,60,0.0,0.0,100,0.00,,,0.00,0,Wunderground v.1.15,2013-05-07 10:20:00,
2013-05-07 06:25:00,52.6,52.6,29.89,ENE,60,0.0,0.0,100,0.00,,,0.00,0,Wunderground v.1.15,2013-05-07 10:25:00,
2013-05-07 06:30:00,52.8,52.8,29.89,ENE,60,0.0,0.0,100,0.00,,,0.00,0,Wunderground v.1.15,2013-05-07 10:30:00,
2013-05-07 06:34:00,52.8,52.8,29.89,ENE,60,0.0,0.0,100,0.00,,,0.00,0,Wunderground v.1.15,2013-05-07 10:34:00,
2013-05-07 06:39:00,53.0,53.0,29.90,ENE,61,0.0,0.0,100,0.00,,,0.00,0,Wunderground v.1.15,2013-05-07 10:39:00,
2013-05-07 06:44:00,53.2,53.2,29.90,ENE,61,0.0,0.0,100,0.00,,,0.00,0,Wunderground v.1.15,2013-05-07 10:44:00,
2013-05-07 06:50:00,53.4,53.4,29.90,ENE,61,0.0,0.0,100,0.00,,,0.00,0,Wunderground v.1.15,2013-05-07 10:50:00,
2013-05-07 06:55:00,53.6,53.6,29.90,ENE,61,0.0,0.0,100,0.00,,,0.00,0,Wunderground v.1.15,2013-05-07 10:55:00,
2013-05-07 07:00:00,53.7,53.7,29.90,ENE,61,0.0,0.0,100,0.00,,,0.00,0,Wunderground v.1.15,2013-05-07 11:00:00,
2013-05-07 07:05:00,53.9,53.9,29.90,ENE,61,0.0,1.0,100,0.00,,,0.00,0,Wunderground v.1.15,2013-05-07 11:05:00,
2013-05-07 07:10:00,54.1,54.1,29.90,ENE,61,0.0,0.0,100,0.00,,,0.00,0,Wunderground v.1.15,2013-05-07 11:10:00,
2013-05-07 07:15:00,54.3,54.3,29.90,ENE,62,0.0,0.0,100,0.00,,,0.00,0,Wunderground v.1.15,2013-05-07 11:15:00,
2013-05-07 07:21:00,54.6,54.6,29.90,ENE,61,0.0,0.0,100,0.00,,,0.00,0,Wunderground v.1.15,2013-05-07 11:21:00,
2013-05-07 07:26:00,54.8,54.8,29.91,ENE,61,1.0,1.0,100,0.00,,,0.00,0,Wunderground v.1.15,2013-05-07 11:26:00,
2013-05-07 07:32:00,55.0,55.0,29.91,ENE,61,0.0,0.0,100,0.00,,,0.00,0,Wunderground v.1.15,2013-05-07 11:32:00,
2013-05-07 07:37:00,55.2,54.9,29.91,ENE,62,0.0,0.0,99,0.00,,,0.00,0,Wunderground v.1.15,2013-05-07 11:37:00,
2013-05-07 07:42:00,55.4,55.1,29.91,ENE,61,0.0,0.0,99,0.00,,,0.00,0,Wunderground v.1.15,2013-05-07 11:42:00,
2013-05-07 07:47:00,55.5,54.9,29.91,ENE,61,1.0,2.0,98,0.00,,,0.00,0,Wunderground v.1.15,2013-05-07 11:47:00,
2013-05-07 07:52:00,55.6,55.0,29.91,ENE,62,0.0,1.0,98,0.00,,,0.00,0,Wunderground v.1.15,2013-05-07 11:52:00,
2013-05-07 07:57:00,55.6,54.8,29.91,ENE,62,0.0,1.0,97,0.00,,,0.00,0,Wunderground v.1.15,2013-05-07 11:57:00,
2013-05-07 08:02:00,55.6,54.5,29.92,ENE,61,0.0,1.0,96,0.00,,,0.00,0,Wunderground v.1.15,2013-05-07 12:02:00,
2013-05-07 08:07:00,55.7,54.6,29.91,ENE,64,2.0,3.0,96,0.00,,,0.00,0,Wunderground v.1.15,2013-05-07 12:07:00,
2013-05-07 08:12:00,55.8,54.7,29.91,ENE,64,1.0,3.0,96,0.00,,,0.00,0,Wunderground v.1.15,2013-05-07 12:12:00,
2013-05-07 08:17:00,55.9,54.5,29.91,ENE,64,2.0,3.0,95,0.00,,,0.00,0,Wunderground v.1.15,2013-05-07 12:17:00,
2013-05-07 08:22:00,56.3,54.6,29.91,ENE,63,2.0,3.0,94,0.00,,,0.00,0,Wunderground v.1.15,2013-05-07 12:22:00,
2013-05-07 08:27:00,56.3,54.6,29.91,NNW,330,1.0,6.0,94,0.00,,,0.00,0,Wunderground v.1.15,2013-05-07 12:27:00,
2013-05-07 08:32:00,56.5,54.5,29.91,ENE,75,1.0,4.0,93,0.00,,,0.00,0,Wunderground v.1.15,2013-05-07 12:32:00,
2013-05-07 08:37:00,56.4,54.1,29.91,ENE,75,1.0,4.0,92,0.00,,,0.00,0,Wunderground v.1.15,2013-05-07 12:37:00,
2013-05-07 08:42:00,56.7,54.4,29.91,ENE,75,1.0,3.0,92,0.00,,,0.00,0,Wunderground v.1.15,2013-05-07 12:42:00,
2013-05-07 08:48:00,57.2,54.6,29.92,ENE,75,0.0,3.0,91,0.00,,,0.00,0,Wunderground v.1.15,2013-05-07 12:48:00,
2013-05-07 08:54:00,57.5,54.3,29.92,ENE,76,0.0,2.0,89,0.00,,,0.00,0,Wunderground v.1.15,2013-05-07 12:54:00,
2013-05-07 08:58:00,57.5,54.3,29.92,ENE,75,0.0,2.0,89,0.00,,,0.00,0,Wunderground v.1.15,2013-05-07 12:58:00,
2013-05-07 09:04:00,57.5,54.3,29.92,ENE,75,1.0,2.0,89,0.00,,,0.00,0,Wunderground v.1.15,2013-05-07 13:04:00,
2013-05-07 09:09:00,57.7,54.5,29.92,ENE,76,0.0,2.0,89,0.00,,,0.00,0,Wunderground v.1.15,2013-05-07 13:09:00,
2013-05-07 09:14:00,57.9,54.7,29.93,ENE,75,0.0,0.0,89,0.00,,,0.00,0,Wunderground v.1.15,2013-05-07 13:14:00,
2013-05-07 09:19:00,58.1,54.6,29.93,ENE,75,0.0,3.0,88,0.00,,,0.00,0,Wunderground v.1.15,2013-05-07 13:19:00,
2013-05-07 09:24:00,58.3,54.4,29.93,ENE,75,0.0,1.0,87,0.00,,,0.00,0,Wunderground v.1.15,2013-05-07 13:24:00,
2013-05-07 09:29:00,58.4,54.5,29.93,ENE,75,1.0,2.0,87,0.00,,,0.00,0,Wunderground v.1.15,2013-05-07 13:29:00,
2013-05-07 09:34:00,58.8,54.9,29.93,ENE,75,0.0,1.0,87,0.00,,,0.00,0,Wunderground v.1.15,2013-05-07 13:34:00,
2013-05-07 09:39:00,59.1,54.9,29.93,ENE,75,2.0,2.0,86,0.00,,,0.00,0,Wunderground v.1.15,2013-05-07 13:39:00,
2013-05-07 09:44:00,58.9,54.4,29.93,ENE,75,0.0,3.0,85,0.00,,,0.00,0,Wunderground v.1.15,2013-05-07 13:44:00,
2013-05-07 09:50:00,59.0,54.5,29.93,ENE,75,0.0,0.0,85,0.00,,,0.00,0,Wunderground v.1.15,2013-05-07 13:50:00,
2013-05-07 09:55:00,59.1,54.6,29.93,ENE,75,1.0,1.0,85,0.00,,,0.00,0,Wunderground v.1.15,2013-05-07 13:55:00,
2013-05-07 10:00:00,58.9,54.7,29.93,ENE,75,0.0,0.0,86,0.00,,,0.00,0,Wunderground v.1.15,2013-05-07 14:00:00,
2013-05-07 10:06:00,59.0,54.5,29.93,ENE,75,0.0,2.0,85,0.00,,,0.00,0,Wunderground v.1.15,2013-05-07 14:06:00,
2013-05-07 10:11:00,59.0,54.5,29.94,ENE,75,0.0,2.0,85,0.00,,,0.00,0,Wunderground v.1.15,2013-05-07 14:11:00,
2013-05-07 10:16:00,59.2,54.7,29.94,ENE,75,0.0,2.0,85,0.00,,,0.00,0,Wunderground v.1.15,2013-05-07 14:16:00,
2013-05-07 10:21:00,59.3,54.8,29.94,ENE,76,0.0,0.0,85,0.00,,,0.00,0,Wunderground v.1.15,2013-05-07 14:21:00,
2013-05-07 10:26:00,59.5,54.7,29.94,ENE,75,0.0,2.0,84,0.00,,,0.00,0,Wunderground v.1.15,2013-05-07 14:26:00,
2013-05-07 10:31:00,60.1,55.2,29.93,ENE,75,0.0,1.0,84,0.00,,,0.00,0,Wunderground v.1.15,2013-05-07 14:31:00,
2013-05-07 10:36:00,60.4,54.9,29.94,ENE,75,1.0,2.0,82,0.00,,,0.00,0,Wunderground v.1.15,2013-05-07 14:36:00,
2013-05-07 10:42:00,60.8,54.9,29.94,East,80,0.0,0.0,81,0.00,,,0.00,0,Wunderground v.1.15,2013-05-07 14:42:00,
2013-05-07 10:47:00,61.1,55.6,29.93,East,80,1.0,1.0,82,0.00,,,0.00,0,Wunderground v.1.15,2013-05-07 14:47:00,
2013-05-07 10:52:00,61.3,55.4,29.94,East,80,0.0,1.0,81,0.00,,,0.00,0,Wunderground v.1.15,2013-05-07 14:52:00,
2013-05-07 10:57:00,61.6,55.7,29.93,East,80,1.0,2.0,81,0.00,,,0.00,0,Wunderground v.1.15,2013-05-07 14:57:00,
2013-05-07 11:02:00,61.6,55.4,29.93,NW,304,2.0,2.0,80,0.00,,,0.00,0,Wunderground v.1.15,2013-05-07 15:02:00,
2013-05-07 11:07:00,62.0,55.8,29.93,NNW,348,1.0,3.0,80,0.00,,,0.00,0,Wunderground v.1.15,2013-05-07 15:07:00,
2013-05-07 11:12:00,63.1,56.8,29.93,NNW,348,1.0,1.0,80,0.00,,,0.00,0,Wunderground v.1.15,2013-05-07 15:12:00,
2013-05-07 11:17:00,63.8,56.1,29.93,North,358,1.0,2.0,76,0.00,,,0.00,0,Wunderground v.1.15,2013-05-07 15:17:00,
2013-05-07 11:22:00,64.3,56.6,29.93,North,358,0.0,2.0,76,0.00,,,0.00,0,Wunderground v.1.15,2013-05-07 15:22:00,
2013-05-07 11:27:00,64.2,56.1,29.93,North,358,1.0,3.0,75,0.00,,,0.00,0,Wunderground v.1.15,2013-05-07 15:27:00,
2013-05-07 11:32:00,64.7,56.6,29.94,North,358,0.0,2.0,75,0.00,,,0.00,0,Wunderground v.1.15,2013-05-07 15:32:00,
2013-05-07 11:37:00,65.4,56.9,29.93,NNW,335,2.0,3.0,74,0.00,,,0.00,0,Wunderground v.1.15,2013-05-07 15:37:00,
2013-05-07 11:42:00,65.8,56.9,29.93,NW,322,0.0,3.0,73,0.00,,,0.00,0,Wunderground v.1.15,2013-05-07 15:42:00,
2013-05-07 11:47:00,66.1,56.8,29.93,WNW,286,3.0,5.0,72,0.00,,,0.00,0,Wunderground v.1.15,2013-05-07 15:47:00,
2013-05-07 11:52:00,66.1,57.6,29.93,WNW,285,1.0,2.0,74,0.00,,,0.00,0,Wunderground v.1.15,2013-05-07 15:52:00,
2013-05-07 11:57:00,66.1,56.4,29.93,WNW,285,2.0,5.0,71,0.00,,,0.00,0,Wunderground v.1.15,2013-05-07 15:57:00,
2013-05-07 12:02:00,66.1,57.2,29.93,WSW,240,2.0,3.0,73,0.00,,,0.00,0,Wunderground v.1.15,2013-05-07 16:02:00,
2013-05-07 12:07:00,67.6,59.0,29.93,WSW,239,0.0,3.0,74,0.00,,,0.00,0,Wunderground v.1.15,2013-05-07 16:07:00,
2013-05-07 12:12:00,69.2,58.2,29.93,SSW,207,1.0,2.0,68,0.00,,,0.00,0,Wunderground v.1.15,2013-05-07 16:12:00,
2013-05-07 12:17:00,68.0,58.2,29.93,NNW,333,2.0,4.0,71,0.00,,,0.00,0,Wunderground v.1.15,2013-05-07 16:17:00,
2013-05-07 12:22:00,67.0,56.9,29.93,NW,310,0.0,4.0,70,0.00,,,0.00,0,Wunderground v.1.15,2013-05-07 16:22:00,
2013-05-07 12:27:00,66.8,57.1,29.92,NW,310,0.0,4.0,71,0.00,,,0.00,0,Wunderground v.1.15,2013-05-07 16:27:00,
2013-05-07 12:32:00,67.1,57.8,29.92,NW,310,1.0,1.0,72,0.00,,,0.00,0,Wunderground v.1.15,2013-05-07 16:32:00,
2013-05-07 12:37:00,67.1,57.0,29.92,NW,310,1.0,2.0,70,0.00,,,0.00,0,Wunderground v.1.15,2013-05-07 16:37:00,
2013-05-07 12:42:00,66.8,57.5,29.92,WNW,303,2.0,3.0,72,0.00,,,0.00,0,Wunderground v.1.15,2013-05-07 16:42:00,
2013-05-07 12:47:00,66.9,57.2,29.92,NW,326,2.0,5.0,71,0.00,,,0.00,0,Wunderground v.1.15,2013-05-07 16:47:00,
2013-05-07 12:52:00,68.1,57.9,29.92,NNW,329,0.0,4.0,70,0.00,,,0.00,0,Wunderground v.1.15,2013-05-07 16:52:00,
2013-05-07 12:57:00,69.6,58.6,29.92,NNW,334,2.0,4.0,68,0.00,,,0.00,0,Wunderground v.1.15,2013-05-07 16:57:00,
2013-05-07 13:02:00,69.8,58.3,29.91,North,356,3.0,4.0,67,0.00,,,0.00,0,Wunderground v.1.15,2013-05-07 17:02:00,
2013-05-07 13:07:00,69.5,57.2,29.91,NNW,337,1.0,4.0,65,0.00,,,0.00,0,Wunderground v.1.15,2013-05-07 17:07:00,
2013-05-07 13:12:00,70.0,58.5,29.91,WNW,303,3.0,4.0,67,0.00,,,0.00,0,Wunderground v.1.15,2013-05-07 17:12:00,
2013-05-07 13:17:00,70.4,58.9,29.91,NW,307,2.0,5.0,67,0.00,,,0.00,0,Wunderground v.1.15,2013-05-07 17:17:00,
2013-05-07 13:22:00,70.1,57.4,29.91,WNW,289,2.0,4.0,64,0.00,,,0.00,0,Wunderground v.1.15,2013-05-07 17:22:00,
2013-05-07 13:27:00,70.4,58.1,29.91,WNW,289,1.0,4.0,65,0.00,,,0.00,0,Wunderground v.1.15,2013-05-07 17:27:00,
2013-05-07 13:32:00,70.7,59.2,29.90,WNW,295,2.0,4.0,67,0.00,,,0.00,0,Wunderground v.1.15,2013-05-07 17:32:00,
2013-05-07 13:37:00,71.0,58.2,29.90,WNW,291,3.0,6.0,64,0.00,,,0.00,0,Wunderground v.1.15,2013-05-07 17:37:00,
2013-05-07 13:42:00,71.0,58.2,29.90,WNW,291,2.0,5.0,64,0.00,,,0.00,0,Wunderground v.1.15,2013-05-07 17:42:00,
2013-05-07 13:47:00,71.1,58.3,29.90,West,280,2.0,5.0,64,0.00,,,0.00,0,Wunderground v.1.15,2013-05-07 17:47:00,
2013-05-07 13:52:00,70.5,58.2,29.90,WNW,300,4.0,4.0,65,0.00,,,0.00,0,Wunderground v.1.15,2013-05-07 17:52:00,
2013-05-07 13:58:00,69.6,57.7,29.90,SW,226,1.0,5.0,66,0.00,,,0.00,0,Wunderground v.1.15,2013-05-07 17:58:00,
2013-05-07 14:04:00,69.9,58.0,29.90,WNW,282,0.0,3.0,66,0.00,,,0.00,0,Wunderground v.1.15,2013-05-07 18:04:00,
2013-05-07 14:09:00,70.0,58.5,29.90,WNW,282,0.0,3.0,67,0.00,,,0.00,0,Wunderground v.1.15,2013-05-07 18:09:00,
2013-05-07 14:14:00,69.9,58.0,29.90,SW,225,2.0,3.0,66,0.00,,,0.00,0,Wunderground v.1.15,2013-05-07 18:14:00,
2013-05-07 14:19:00,69.6,58.2,29.90,SSW,207,0.0,3.0,67,0.00,,,0.00,0,Wunderground v.1.15,2013-05-07 18:19:00,
2013-05-07 14:24:00,68.8,57.8,29.89,WNW,288,2.0,4.0,68,0.00,,,0.00,0,Wunderground v.1.15,2013-05-07 18:24:00,
2013-05-07 14:29:00,68.1,57.9,29.90,WNW,288,0.0,4.0,70,0.00,,,0.00,0,Wunderground v.1.15,2013-05-07 18:29:00,
2013-05-07 14:34:00,67.9,58.1,29.89,WNW,288,0.0,1.0,71,0.00,,,0.00,0,Wunderground v.1.15,2013-05-07 18:34:00,
2013-05-07 14:39:00,67.7,58.7,29.89,WNW,288,0.0,0.0,73,0.00,,,0.00,0,Wunderground v.1.15,2013-05-07 18:39:00,
2013-05-07 14:44:00,67.5,58.9,29.90,WNW,288,0.0,1.0,74,0.00,,,0.00,0,Wunderground v.1.15,2013-05-07 18:44:00,
2013-05-07 14:50:00,67.1,59.3,29.89,WNW,288,0.0,0.0,76,0.00,,,0.00,0,Wunderground v.1.15,2013-05-07 18:50:00,
2013-05-07 14:55:00,66.7,59.3,29.89,WNW,288,1.0,2.0,77,0.00,,,0.00,0,Wunderground v.1.15,2013-05-07 18:55:00,
2013-05-07 15:00:00,66.4,60.0,29.89,WNW,288,1.0,2.0,80,0.00,,,0.00,0,Wunderground v.1.15,2013-05-07 19:00:00,
2013-05-07 15:05:00,66.1,60.1,29.89,WNW,288,0.0,2.0,81,0.00,,,0.00,0,Wunderground v.1.15,2013-05-07 19:05:00,
2013-05-07 15:10:00,65.8,59.8,29.90,WNW,288,1.0,1.0,81,0.00,,,0.00,0,Wunderground v.1.15,2013-05-07 19:10:00,
2013-05-07 15:15:00,65.5,59.9,29.90,SW,236,0.0,3.0,82,0.00,,,0.00,0,Wunderground v.1.15,2013-05-07 19:15:00,
2013-05-07 15:20:00,64.5,59.6,29.91,ENE,71,1.0,3.0,84,0.00,,,0.00,0,Wunderground v.1.15,2013-05-07 19:20:00,
2013-05-07 15:25:00,63.4,59.1,29.91,ENE,71,0.0,3.0,86,0.00,,,0.00,0,Wunderground v.1.15,2013-05-07 19:25:00,
2013-05-07 15:30:00,62.7,58.8,29.91,North,5,3.0,3.0,87,0.00,,,0.00,0,Wunderground v.1.15,2013-05-07 19:30:00,
2013-05-07 15:35:00,62.0,58.1,29.91,ENE,75,2.0,5.0,87,0.00,,,0.00,0,Wunderground v.1.15,2013-05-07 19:35:00,
2013-05-07 15:40:00,61.5,58.2,29.91,ENE,75,2.0,2.0,89,0.00,,,0.00,0,Wunderground v.1.15,2013-05-07 19:40:00,
2013-05-07 15:45:00,61.2,58.2,29.91,ENE,75,0.0,3.0,90,0.00,,,0.00,0,Wunderground v.1.15,2013-05-07 19:45:00,
2013-05-07 15:51:00,61.0,57.7,29.91,ENE,75,0.0,0.0,89,0.00,,,0.00,0,Wunderground v.1.15,2013-05-07 19:51:00,
2013-05-07 15:56:00,61.0,57.7,29.90,ENE,75,0.0,2.0,89,0.00,,,0.00,0,Wunderground v.1.15,2013-05-07 19:56:00,
2013-05-07 16:01:00,61.0,57.7,29.90,ENE,75,0.0,2.0,89,0.00,,,0.00,0,Wunderground v.1.15,2013-05-07 20:01:00,
2013-05-07 16:06:00,61.1,58.1,29.90,ENE,75,0.0,2.0,90,0.00,,,0.00,0,Wunderground v.1.15,2013-05-07 20:06:00,
2013-05-07 16:11:00,61.7,58.4,29.90,ENE,74,0.0,0.0,89,0.00,,,0.00,0,Wunderground v.1.15,2013-05-07 20:11:00,
2013-05-07 16:16:00,62.1,58.2,29.90,ENE,74,0.0,1.0,87,0.00,,,0.00,0,Wunderground v.1.15,2013-05-07 20:16:00,
2013-05-07 16:21:00,62.3,58.4,29.90,ENE,74,1.0,2.0,87,0.00,,,0.00,0,Wunderground v.1.15,2013-05-07 20:21:00,
2013-05-07 16:26:00,62.3,58.7,29.89,ENE,75,0.0,2.0,88,0.00,,,0.00,0,Wunderground v.1.15,2013-05-07 20:26:00,
2013-05-07 16:32:00,62.8,59.2,29.89,ENE,75,0.0,0.0,88,0.00,,,0.00,0,Wunderground v.1.15,2013-05-07 20:32:00,
2013-05-07 16:37:00,63.1,58.5,29.89,ENE,75,1.0,2.0,85,0.00,,,0.00,0,Wunderground v.1.15,2013-05-07 20:37:00,
2013-05-07 16:42:00,63.2,57.9,29.90,ENE,75,0.0,1.0,83,0.00,,,0.00,0,Wunderground v.1.15,2013-05-07 20:42:00,
2013-05-07 16:48:00,64.0,58.7,29.89,ENE,74,0.0,1.0,83,0.00,,,0.00,0,Wunderground v.1.15,2013-05-07 20:48:00,
2013-05-07 16:53:00,64.2,58.9,29.89,ENE,75,0.0,2.0,83,0.00,,,0.00,0,Wunderground v.1.15,2013-05-07 20:53:00,
2013-05-07 16:58:00,64.8,59.5,29.89,ENE,74,0.0,2.0,83,0.00,,,0.00,0,Wunderground v.1.15,2013-05-07 20:58:00,
2013-05-07 17:03:00,65.7,59.7,29.89,ENE,75,2.0,2.0,81,0.00,,,0.00,0,Wunderground v.1.15,2013-05-07 21:03:00,
2013-05-07 17:08:00,66.0,58.2,29.89,ENE,75,2.0,3.0,76,0.00,,,0.00,0,Wunderground v.1.15,2013-05-07 21:08:00,
2013-05-07 17:13:00,66.2,58.4,29.89,ENE,75,2.0,3.0,76,0.00,,,0.00,0,Wunderground v.1.15,2013-05-07 21:13:00,
2013-05-07 17:19:00,66.7,58.1,29.89,ENE,75,0.0,3.0,74,0.00,,,0.00,0,Wunderground v.1.15,2013-05-07 21:19:00,
2013-05-07 17:24:00,66.5,58.3,29.89,WNW,290,2.0,4.0,75,0.00,,,0.00,0,Wunderground v.1.15,2013-05-07 21:24:00,
2013-05-07 17:29:00,66.0,58.6,29.89,WNW,291,0.0,0.0,77,0.00,,,0.00,0,Wunderground v.1.15,2013-05-07 21:29:00,
2013-05-07 17:34:00,65.9,58.5,29.88,WNW,291,0.0,2.0,77,0.00,,,0.00,0,Wunderground v.1.15,2013-05-07 21:34:00,
2013-05-07 17:39:00,65.4,58.4,29.88,WNW,291,1.0,1.0,78,0.00,,,0.00,0,Wunderground v.1.15,2013-05-07 21:39:00,
2013-05-07 17:44:00,65.4,58.4,29.88,WNW,291,0.0,2.0,78,0.00,,,0.00,0,Wunderground v.1.15,2013-05-07 21:44:00,
2013-05-07 17:49:00,65.4,58.7,29.88,WNW,291,2.0,2.0,79,0.00,,,0.00,0,Wunderground v.1.15,2013-05-07 21:49:00,
2013-05-07 17:54:00,65.7,59.4,29.88,WNW,291,0.0,2.0,80,0.00,,,0.00,0,Wunderground v.1.15,2013-05-07 21:54:00,
2013-05-07 17:59:00,65.8,58.7,29.88,WNW,290,0.0,1.0,78,0.00,,,0.00,0,Wunderground v.1.15,2013-05-07 21:59:00,
2013-05-07 18:04:00,65.9,58.8,29.89,WNW,291,0.0,2.0,78,0.00,,,0.00,0,Wunderground v.1.15,2013-05-07 22:04:00,
2013-05-07 18:09:00,65.9,58.5,29.89,WSW,240,0.0,0.0,77,0.00,,,0.00,0,Wunderground v.1.15,2013-05-07 22:09:00,
2013-05-07 18:14:00,65.2,58.5,29.88,WNW,286,1.0,3.0,79,0.00,,,0.00,0,Wunderground v.1.15,2013-05-07 22:14:00,
2013-05-07 18:19:00,64.8,58.5,29.88,WNW,286,0.0,0.0,80,0.00,,,0.00,0,Wunderground v.1.15,2013-05-07 22:19:00,
2013-05-07 18:24:00,65.0,58.7,29.89,WNW,286,0.0,2.0,80,0.00,,,0.00,0,Wunderground v.1.15,2013-05-07 22:24:00,
2013-05-07 18:29:00,65.1,58.4,29.89,WNW,285,0.0,0.0,79,0.00,,,0.00,0,Wunderground v.1.15,2013-05-07 22:29:00,
2013-05-07 18:34:00,65.2,58.5,29.89,WNW,286,1.0,2.0,79,0.00,,,0.00,0,Wunderground v.1.15,2013-05-07 22:34:00,
2013-05-07 18:39:00,65.0,58.3,29.89,WNW,286,1.0,2.0,79,0.00,,,0.00,0,Wunderground v.1.15,2013-05-07 22:39:00,
2013-05-07 18:44:00,64.7,58.4,29.89,WNW,286,0.0,2.0,80,0.00,,,0.00,0,Wunderground v.1.15,2013-05-07 22:44:00,
2013-05-07 18:50:00,64.5,58.5,29.89,WNW,285,2.0,2.0,81,0.00,,,0.00,0,Wunderground v.1.15,2013-05-07 22:50:00,
2013-05-07 18:55:00,64.3,58.7,29.88,WNW,285,0.0,2.0,82,0.00,,,0.00,0,Wunderground v.1.15,2013-05-07 22:55:00,
2013-05-07 19:00:00,64.2,58.6,29.89,WNW,286,1.0,1.0,82,0.00,,,0.00,0,Wunderground v.1.15,2013-05-07 23:00:00,
2013-05-07 19:05:00,64.1,58.1,29.89,WNW,285,0.0,1.0,81,0.00,,,0.00,0,Wunderground v.1.15,2013-05-07 23:05:00,
2013-05-07 19:10:00,63.9,58.0,29.89,WNW,285,0.0,0.0,81,0.00,,,0.00,0,Wunderground v.1.15,2013-05-07 23:10:00,
2013-05-07 19:15:00,63.8,58.5,29.89,WNW,285,1.0,1.0,83,0.00,,,0.00,0,Wunderground v.1.15,2013-05-07 23:15:00,
2013-05-07 19:20:00,63.6,58.3,29.89,WNW,285,0.0,1.0,83,0.00,,,0.00,0,Wunderground v.1.15,2013-05-07 23:20:00,
2013-05-07 19:25:00,63.3,58.4,29.89,WNW,285,0.0,2.0,84,0.00,,,0.00,0,Wunderground v.1.15,2013-05-07 23:25:00,
2013-05-07 19:30:00,63.2,58.3,29.89,WNW,285,0.0,1.0,84,0.00,,,0.00,0,Wunderground v.1.15,2013-05-07 23:30:00,
2013-05-07 19:35:00,63.0,58.1,29.89,WNW,285,0.0,1.0,84,0.00,,,0.00,0,Wunderground v.1.15,2013-05-07 23:35:00,
2013-05-07 19:41:00,62.5,58.3,29.89,WNW,285,1.0,1.0,86,0.00,,,0.00,0,Wunderground v.1.15,2013-05-07 23:41:00,
2013-05-07 19:46:00,62.3,58.1,29.89,WNW,285,0.0,1.0,86,0.00,,,0.00,0,Wunderground v.1.15,2013-05-07 23:46:00,
2013-05-07 19:51:00,62.1,57.9,29.90,WNW,285,0.0,0.0,86,0.00,,,0.00,0,Wunderground v.1.15,2013-05-07 23:51:00,
2013-05-07 19:56:00,61.9,57.7,29.90,WNW,284,0.0,0.0,86,0.00,,,0.00,0,Wunderground v.1.15,2013-05-07 23:56:00,
2013-05-07 20:01:00,61.8,57.9,29.91,WNW,284,0.0,0.0,87,0.00,,,0.00,0,Wunderground v.1.15,2013-05-08 00:01:00,
2013-05-07 20:06:00,61.5,57.9,29.90,West,281,0.0,0.0,88,0.00,,,0.00,0,Wunderground v.1.15,2013-05-08 00:06:00,
2013-05-07 20:11:00,61.3,57.7,29.91,West,272,0.0,0.0,88,0.00,,,0.00,0,Wunderground v.1.15,2013-05-08 00:11:00,
2013-05-07 20:16:00,61.1,57.5,29.91,SSW,192,0.0,0.0,88,0.00,,,0.00,0,Wunderground v.1.15,2013-05-08 00:16:00,
2013-05-07 20:21:00,60.9,57.6,29.90,South,172,0.0,0.0,89,0.00,,,0.00,0,Wunderground v.1.15,2013-05-08 00:21:00,
2013-05-07 20:26:00,60.5,57.6,29.90,SSE,167,0.0,0.0,90,0.00,,,0.00,0,Wunderground v.1.15,2013-05-08 00:26:00,
2013-05-07 20:31:00,60.0,57.4,29.90,SSE,166,0.0,1.0,91,0.00,,,0.00,0,Wunderground v.1.15,2013-05-08 00:31:00,
2013-05-07 20:36:00,59.8,57.5,29.90,SSE,166,0.0,1.0,92,0.00,,,0.00,0,Wunderground v.1.15,2013-05-08 00:36:00,
2013-05-07 20:41:00,59.6,57.3,29.90,SSE,163,0.0,0.0,92,0.00,,,0.00,0,Wunderground v.1.15,2013-05-08 00:41:00,
2013-05-07 20:46:00,59.3,57.3,29.91,South,169,0.0,1.0,93,0.00,,,0.00,0,Wunderground v.1.15,2013-05-08 00:46:00,
2013-05-07 20:51:00,59.1,57.1,29.90,SW,219,0.0,0.0,93,0.00,,,0.00,0,Wunderground v.1.15,2013-05-08 00:51:00,
2013-05-07 20:56:00,58.9,56.9,29.90,SW,221,0.0,0.0,93,0.00,,,0.00,0,Wunderground v.1.15,2013-05-08 00:56:00,
2013-05-07 21:01:00,58.8,56.8,29.90,SW,217,0.0,0.0,93,0.00,,,0.00,0,Wunderground v.1.15,2013-05-08 01:01:00,
2013-05-07 21:06:00,58.6,56.6,29.90,SW,220,0.0,0.0,93,0.00,,,0.00,0,Wunderground v.1.15,2013-05-08 01:06:00,
2013-05-07 21:12:00,58.3,56.6,29.90,SW,215,0.0,0.0,94,0.00,,,0.00,0,Wunderground v.1.15,2013-05-08 01:12:00,
2013-05-07 21:17:00,58.1,56.4,29.90,SW,215,0.0,0.0,94,0.00,,,0.00,0,Wunderground v.1.15,2013-05-08 01:17:00,
2013-05-07 21:22:00,58.0,56.3,29.90,SSW,212,0.0,0.0,94,0.00,,,0.00,0,Wunderground v.1.15,2013-05-08 01:22:00,
2013-05-07 21:27:00,57.8,56.1,29.90,SSW,211,0.0,0.0,94,0.00,,,0.00,0,Wunderground v.1.15,2013-05-08 01:27:00,
2013-05-07 21:32:00,57.6,55.9,29.90,SSW,210,0.0,0.0,94,0.00,,,0.00,0,Wunderground v.1.15,2013-05-08 01:32:00,
2013-05-07 21:37:00,57.5,55.8,29.90,SSW,209,0.0,0.0,94,0.00,,,0.00,0,Wunderground v.1.15,2013-05-08 01:37:00,
2013-05-07 21:42:00,57.3,55.9,29.91,SSW,208,0.0,0.0,95,0.00,,,0.00,0,Wunderground v.1.15,2013-05-08 01:42:00,
2013-05-07 21:47:00,57.1,55.4,29.90,SSW,209,0.0,0.0,94,0.00,,,0.00,0,Wunderground v.1.15,2013-05-08 01:47:00,
2013-05-07 21:52:00,56.9,55.2,29.91,SSW,209,0.0,0.0,94,0.00,,,0.00,0,Wunderground v.1.15,2013-05-08 01:52:00,
2013-05-07 21:57:00,56.7,55.0,29.91,SSW,210,0.0,0.0,94,0.00,,,0.00,0,Wunderground v.1.15,2013-05-08 01:57:00,
2013-05-07 22:02:00,56.5,54.8,29.91,SSW,209,0.0,0.0,94,0.00,,,0.00,0,Wunderground v.1.15,2013-05-08 02:02:00,
2013-05-07 22:07:00,56.5,55.1,29.91,SSW,209,0.0,0.0,95,0.00,,,0.00,0,Wunderground v.1.15,2013-05-08 02:07:00,
2013-05-07 22:12:00,56.4,55.0,29.91,SSW,210,0.0,0.0,95,0.00,,,0.00,0,Wunderground v.1.15,2013-05-08 02:12:00,
2013-05-07 22:17:00,56.3,54.9,29.91,SSW,208,0.0,0.0,95,0.00,,,0.00,0,Wunderground v.1.15,2013-05-08 02:17:00,
2013-05-07 22:22:00,56.3,55.2,29.91,SSW,208,0.0,0.0,96,0.00,,,0.00,0,Wunderground v.1.15,2013-05-08 02:22:00,
2013-05-07 22:27:00,56.2,55.1,29.91,SSW,210,0.0,0.0,96,0.00,,,0.00,0,Wunderground v.1.15,2013-05-08 02:27:00,
2013-05-07 22:32:00,56.2,55.1,29.91,SSW,211,0.0,0.0,96,0.00,,,0.00,0,Wunderground v.1.15,2013-05-08 02:32:00,
2013-05-07 22:37:00,56.2,55.1,29.91,SSW,209,0.0,0.0,96,0.00,,,0.00,0,Wunderground v.1.15,2013-05-08 02:37:00,
2013-05-07 22:42:00,56.2,55.1,29.91,WSW,241,0.0,0.0,96,0.00,,,0.00,0,Wunderground v.1.15,2013-05-08 02:42:00,
2013-05-07 22:47:00,56.3,55.2,29.91,WSW,242,0.0,0.0,96,0.00,,,0.00,0,Wunderground v.1.15,2013-05-08 02:47:00,
2013-05-07 22:52:00,56.3,55.2,29.91,WSW,244,0.0,0.0,96,0.00,,,0.00,0,Wunderground v.1.15,2013-05-08 02:52:00,
2013-05-07 22:57:00,56.3,55.2,29.91,WSW,246,0.0,0.0,96,0.00,,,0.00,0,Wunderground v.1.15,2013-05-08 02:57:00,
2013-05-07 23:02:00,56.2,55.1,29.91,WSW,245,0.0,0.0,96,0.00,,,0.00,0,Wunderground v.1.15,2013-05-08 03:02:00,
2013-05-07 23:07:00,56.1,55.0,29.91,WSW,245,0.0,0.0,96,0.00,,,0.00,0,Wunderground v.1.15,2013-05-08 03:07:00,
2013-05-07 23:12:00,56.0,54.9,29.91,WSW,245,0.0,0.0,96,0.00,,,0.00,0,Wunderground v.1.15,2013-05-08 03:12:00,
2013-05-07 23:18:00,56.1,55.0,29.91,WSW,243,0.0,0.0,96,0.00,,,0.00,0,Wunderground v.1.15,2013-05-08 03:18:00,
2013-05-07 23:23:00,56.1,55.3,29.91,WSW,247,0.0,0.0,97,0.00,,,0.00,0,Wunderground v.1.15,2013-05-08 03:23:00,
2013-05-07 23:28:00,56.3,55.5,29.91,WSW,249,0.0,0.0,97,0.00,,,0.00,0,Wunderground v.1.15,2013-05-08 03:28:00,
2013-05-07 23:33:00,56.4,55.6,29.91,WSW,246,0.0,0.0,97,0.00,,,0.00,0,Wunderground v.1.15,2013-05-08 03:33:00,
2013-05-07 23:38:00,56.5,55.7,29.91,WSW,247,0.0,0.0,97,0.00,,,0.00,0,Wunderground v.1.15,2013-05-08 03:38:00,
2013-05-07 23:43:00,56.6,55.8,29.91,WSW,247,0.0,0.0,97,0.00,,,0.00,0,Wunderground v.1.15,2013-05-08 03:43:00,
2013-05-07 23:49:00,56.7,55.9,29.91,WSW,248,0.0,0.0,97,0.00,,,0.00,0,Wunderground v.1.15,2013-05-08 03:49:00,
2013-05-07 23:54:00,56.8,56.0,29.91,WSW,247,0.0,0.0,97,0.00,,,0.00,0,Wunderground v.1.15,2013-05-08 03:54:00,
2013-05-07 23:59:00,56.8,56.0,29.91,WSW,242,0.0,0.0,97,0.00,,,0.00,0,Wunderground v.1.15,2013-05-08 03:59:00,